createdAt,value
2016-05-16T00:00:46.990Z,1001.9
2016-05-16T00:01:47.024Z,1001.73
2016-05-16T00:02:47.059Z,1001.81
2016-05-16T00:03:47.092Z,1001.8
2016-05-16T00:04:47.126Z,1001.89
2016-05-16T00:05:47.175Z,1001.78
2016-05-16T00:06:47.195Z,1001.8
2016-05-16T00:07:47.228Z,1001.84
2016-05-16T00:08:47.278Z,1001.87
2016-05-16T00:09:47.311Z,1001.86
2016-05-16T00:10:47.345Z,1001.86
2016-05-16T00:11:47.379Z,1001.87
2016-05-16T00:12:47.413Z,1001.88
2016-05-16T00:13:47.448Z,1001.9
2016-05-16T00:14:47.481Z,1001.88
2016-05-16T00:15:47.516Z,1001.94
2016-05-16T00:16:47.549Z,1001.93
2016-05-16T00:17:47.583Z,1001.91
2016-05-16T00:18:47.632Z,1001.89
2016-05-16T00:19:47.666Z,1001.94
2016-05-16T00:20:47.700Z,1001.91
2016-05-16T00:21:47.735Z,1001.91
2016-05-16T00:22:47.768Z,1001.9
2016-05-16T00:23:47.802Z,1001.87
2016-05-16T00:24:47.852Z,1001.92
2016-05-16T00:25:47.871Z,1001.9
2016-05-16T00:26:47.904Z,1001.87
2016-05-16T00:27:47.938Z,1001.89
2016-05-16T00:28:47.988Z,1001.89
2016-05-16T00:29:48.021Z,1001.91
2016-05-16T00:30:48.056Z,1001.94
2016-05-16T00:31:48.089Z,1001.93
2016-05-16T00:32:48.124Z,1001.9
2016-05-16T00:33:48.157Z,1001.92
2016-05-16T00:34:48.270Z,1001.94
2016-05-16T00:35:48.240Z,1001.96
2016-05-16T00:36:48.259Z,1001.98
2016-05-16T00:37:48.309Z,1001.96
2016-05-16T00:38:48.327Z,1001.98
2016-05-16T00:39:48.376Z,1001.98
2016-05-16T00:40:48.411Z,1001.96
2016-05-16T00:41:48.445Z,1001.99
2016-05-16T00:42:48.478Z,1001.99
2016-05-16T00:43:48.512Z,1001.98
2016-05-16T00:44:48.546Z,1001.98
2016-05-16T00:45:48.580Z,1001.92
2016-05-16T00:46:48.630Z,1001.93
2016-05-16T00:47:48.648Z,1001.96
2016-05-16T00:48:48.682Z,1001.98
2016-05-16T00:49:48.857Z,1001.97
2016-05-16T00:50:48.766Z,1001.93
2016-05-16T00:51:48.799Z,1001.98
2016-05-16T00:52:48.833Z,1001.99
2016-05-16T00:53:48.868Z,1001.94
2016-05-16T00:54:48.902Z,1001.92
2016-05-16T00:55:48.935Z,1001.96
2016-05-16T00:56:48.969Z,1001.9
2016-05-16T00:57:49.004Z,1001.93
2016-05-16T00:58:49.038Z,1001.91
2016-05-16T00:59:49.086Z,1001.98
2016-05-16T01:00:49.104Z,1001.92
2016-05-16T01:01:49.154Z,1001.95
2016-05-16T01:02:49.188Z,1001.92
2016-05-16T01:03:49.223Z,1001.92
2016-05-16T01:04:49.443Z,1001.92
2016-05-16T01:05:49.290Z,1001.96
2016-05-16T01:06:49.323Z,1001.98
2016-05-16T01:07:49.359Z,1001.91
2016-05-16T01:08:49.392Z,1001.95
2016-05-16T01:09:49.426Z,1001.93
2016-05-16T01:10:49.460Z,1001.88
2016-05-16T01:11:49.509Z,1001.86
2016-05-16T01:12:49.559Z,1001.86
2016-05-16T01:13:49.578Z,1001.86
2016-05-16T01:14:49.612Z,1001.86
2016-05-16T01:15:49.645Z,1001.9
2016-05-16T01:16:49.679Z,1001.87
2016-05-16T01:17:49.713Z,1001.86
2016-05-16T01:18:49.747Z,1001.88
2016-05-16T01:19:49.797Z,1001.93
2016-05-16T01:20:49.831Z,1001.89
2016-05-16T01:21:49.864Z,1001.91
2016-05-16T01:22:49.898Z,1001.92
2016-05-16T01:23:49.933Z,1001.91
2016-05-16T01:24:49.967Z,1001.91
2016-05-16T01:25:50.000Z,1001.9
2016-05-16T01:26:50.034Z,1001.92
2016-05-16T01:27:50.069Z,1001.94
2016-05-16T01:28:50.101Z,1001.91
2016-05-16T01:29:50.136Z,1001.95
2016-05-16T01:30:50.170Z,1001.94
2016-05-16T01:31:50.204Z,1001.94
2016-05-16T01:32:50.254Z,1001.95
2016-05-16T01:33:50.288Z,1001.97
2016-05-16T01:34:50.353Z,1001.94
2016-05-16T01:35:50.355Z,1001.96
2016-05-16T01:36:50.389Z,1001.95
2016-05-16T01:37:50.424Z,1001.96
2016-05-16T01:38:50.489Z,1001.94
2016-05-16T01:39:50.491Z,1002.06
2016-05-16T01:40:50.526Z,1001.95
2016-05-16T01:41:50.559Z,1001.94
2016-05-16T01:42:50.608Z,1001.93
2016-05-16T01:43:50.643Z,1001.96
2016-05-16T01:44:50.692Z,1002.13
2016-05-16T01:45:50.710Z,1002
2016-05-16T01:46:50.745Z,1002.06
2016-05-16T01:47:50.778Z,1002.04
2016-05-16T01:48:50.811Z,1002.04
2016-05-16T01:49:50.878Z,1002.03
2016-05-16T01:50:50.880Z,1002
2016-05-16T01:51:50.944Z,1001.98
2016-05-16T01:52:51.019Z,1002.03
2016-05-16T01:53:51.109Z,1002.1
2016-05-16T01:54:51.167Z,1002
2016-05-16T01:55:51.242Z,1002
2016-05-16T01:56:51.296Z,1002
2016-05-16T01:57:51.360Z,1002.01
2016-05-16T01:58:51.410Z,1002
2016-05-16T01:59:51.458Z,1001.98
2016-05-16T02:00:51.522Z,1001.94
2016-05-16T02:01:51.547Z,1001.97
2016-05-16T02:02:51.588Z,1001.97
2016-05-16T02:03:51.627Z,1001.9
2016-05-16T02:04:51.682Z,1001.9
2016-05-16T02:05:51.705Z,1001.95
2016-05-16T02:06:51.742Z,1001.91
2016-05-16T02:07:51.778Z,1001.96
2016-05-16T02:08:51.813Z,1001.9
2016-05-16T02:09:51.865Z,1001.9
2016-05-16T02:10:51.901Z,1001.92
2016-05-16T02:11:51.936Z,1001.98
2016-05-16T02:12:51.971Z,1001.96
2016-05-16T02:13:52.005Z,1002.05
2016-05-16T02:14:52.040Z,1001.94
2016-05-16T02:15:52.074Z,1001.94
2016-05-16T02:16:52.109Z,1001.91
2016-05-16T02:17:52.142Z,1001.91
2016-05-16T02:18:52.224Z,1001.94
2016-05-16T02:19:52.226Z,1002.02
2016-05-16T02:20:52.259Z,1001.91
2016-05-16T02:21:52.279Z,1001.93
2016-05-16T02:22:52.328Z,1001.97
2016-05-16T02:23:52.361Z,1001.94
2016-05-16T02:24:52.381Z,1001.91
2016-05-16T02:25:52.461Z,1001.9
2016-05-16T02:26:52.448Z,1001.92
2016-05-16T02:27:52.497Z,1001.91
2016-05-16T02:28:52.531Z,1001.98
2016-05-16T02:29:52.566Z,1001.93
2016-05-16T02:30:52.600Z,1001.92
2016-05-16T02:31:52.633Z,1001.99
2016-05-16T02:32:52.667Z,1001.97
2016-05-16T02:33:52.701Z,1001.97
2016-05-16T02:34:53.126Z,1002
2016-05-16T02:35:52.769Z,1002.03
2016-05-16T02:36:52.850Z,1002.01
2016-05-16T02:37:52.837Z,1002.01
2016-05-16T02:38:52.871Z,1002.06
2016-05-16T02:39:52.905Z,1001.98
2016-05-16T02:40:52.939Z,1002
2016-05-16T02:41:52.973Z,1002.02
2016-05-16T02:42:53.006Z,1002.01
2016-05-16T02:43:53.040Z,1002
2016-05-16T02:44:53.090Z,1002
2016-05-16T02:45:53.124Z,1002.02
2016-05-16T02:46:53.157Z,1001.99
2016-05-16T02:47:53.224Z,1001.96
2016-05-16T02:48:53.226Z,1002.02
2016-05-16T02:49:53.260Z,1002.04
2016-05-16T02:50:53.293Z,1002.01
2016-05-16T02:51:53.328Z,1002.07
2016-05-16T02:52:53.361Z,1002.04
2016-05-16T02:53:53.396Z,1002.1
2016-05-16T02:54:53.461Z,1002.05
2016-05-16T02:55:53.464Z,1002.05
2016-05-16T02:56:53.513Z,1002.08
2016-05-16T02:57:53.531Z,1002.06
2016-05-16T02:58:53.581Z,1002.05
2016-05-16T02:59:53.615Z,1002.04
2016-05-16T03:00:53.649Z,1002.04
2016-05-16T03:01:53.698Z,1002.05
2016-05-16T03:02:53.748Z,1002.06
2016-05-16T03:03:53.750Z,1002.05
2016-05-16T03:04:53.785Z,1002.05
2016-05-16T03:05:53.833Z,1002.08
2016-05-16T03:06:53.852Z,1002.05
2016-05-16T03:07:53.886Z,1002.04
2016-05-16T03:08:53.921Z,1002.03
2016-05-16T03:09:53.954Z,1002.02
2016-05-16T03:10:53.988Z,1002.07
2016-05-16T03:11:54.038Z,1002.07
2016-05-16T03:12:54.057Z,1002.07
2016-05-16T03:13:54.090Z,1002.04
2016-05-16T03:14:54.140Z,1002.04
2016-05-16T03:15:54.173Z,1002.04
2016-05-16T03:16:54.223Z,1002.09
2016-05-16T03:17:54.241Z,1002.05
2016-05-16T03:18:54.276Z,1002.03
2016-05-16T03:19:54.309Z,1002.1
2016-05-16T03:20:54.343Z,1002.09
2016-05-16T03:21:54.377Z,1002.05
2016-05-16T03:22:54.411Z,1002.09
2016-05-16T03:23:54.476Z,1002.08
2016-05-16T03:24:54.479Z,1002.14
2016-05-16T03:25:54.513Z,1002.12
2016-05-16T03:26:54.547Z,1002.11
2016-05-16T03:27:54.581Z,1002.08
2016-05-16T03:28:54.614Z,1002.13
2016-05-16T03:29:54.664Z,1002.12
2016-05-16T03:30:54.698Z,1002.08
2016-05-16T03:31:54.733Z,1002.11
2016-05-16T03:32:54.766Z,1002.09
2016-05-16T03:33:54.800Z,1002.08
2016-05-16T03:34:54.834Z,1002.08
2016-05-16T03:35:55.055Z,1002.08
2016-05-16T03:36:54.902Z,1002.09
2016-05-16T03:37:54.936Z,1002.07
2016-05-16T03:38:54.969Z,1002.09
2016-05-16T03:39:55.004Z,1002.09
2016-05-16T03:40:55.038Z,1002.06
2016-05-16T03:41:55.071Z,1002.12
2016-05-16T03:42:55.105Z,1002.13
2016-05-16T03:43:55.140Z,1002.14
2016-05-16T03:44:55.174Z,1002.16
2016-05-16T03:45:55.223Z,1002.13
2016-05-16T03:46:55.257Z,1002.13
2016-05-16T03:47:55.291Z,1002.08
2016-05-16T03:48:55.309Z,1002.09
2016-05-16T03:49:55.359Z,1002.13
2016-05-16T03:50:55.393Z,1002.14
2016-05-16T03:51:55.426Z,1002.07
2016-05-16T03:52:55.492Z,1002.14
2016-05-16T03:53:55.495Z,1002.11
2016-05-16T03:54:55.528Z,1002.14
2016-05-16T03:55:55.562Z,1002.12
2016-05-16T03:56:55.596Z,1002.14
2016-05-16T03:57:55.631Z,1002.13
2016-05-16T03:58:55.680Z,1002.19
2016-05-16T03:59:55.698Z,1002.09
2016-05-16T04:00:55.747Z,1002.12
2016-05-16T04:01:55.781Z,1002.1
2016-05-16T04:02:55.800Z,1002.15
2016-05-16T04:03:55.850Z,1002.07
2016-05-16T04:04:55.883Z,1002.12
2016-05-16T04:05:55.917Z,1002.11
2016-05-16T04:06:55.952Z,1002.1
2016-05-16T04:07:56.001Z,1002.11
2016-05-16T04:08:56.019Z,1002.14
2016-05-16T04:09:56.053Z,1002.1
2016-05-16T04:10:56.087Z,1002.05
2016-05-16T04:11:56.136Z,1002.1
2016-05-16T04:12:56.155Z,1002.1
2016-05-16T04:13:56.188Z,1002.15
2016-05-16T04:14:56.223Z,1002.15
2016-05-16T04:15:56.272Z,1002.14
2016-05-16T04:16:56.291Z,1002.14
2016-05-16T04:17:56.340Z,1002.13
2016-05-16T04:18:56.405Z,1002.12
2016-05-16T04:19:56.486Z,1002.13
2016-05-16T04:20:56.442Z,1002.16
2016-05-16T04:21:56.476Z,1002.17
2016-05-16T04:22:56.557Z,1002.19
2016-05-16T04:23:56.559Z,1002.13
2016-05-16T04:24:56.578Z,1002.24
2016-05-16T04:25:56.612Z,1002.15
2016-05-16T04:26:56.645Z,1002.21
2016-05-16T04:27:56.679Z,1002.21
2016-05-16T04:28:56.714Z,1002.26
2016-05-16T04:29:56.764Z,1002.25
2016-05-16T04:30:56.797Z,1002.29
2016-05-16T04:31:56.831Z,1002.27
2016-05-16T04:32:56.864Z,1002.38
2016-05-16T04:33:56.899Z,1002.27
2016-05-16T04:34:56.933Z,1002.28
2016-05-16T04:35:56.967Z,1002.32
2016-05-16T04:36:57.000Z,1002.29
2016-05-16T04:37:57.035Z,1002.3
2016-05-16T04:38:57.069Z,1002.33
2016-05-16T04:39:57.103Z,1002.25
2016-05-16T04:40:57.136Z,1002.3
2016-05-16T04:41:57.186Z,1002.27
2016-05-16T04:42:57.220Z,1002.29
2016-05-16T04:43:57.254Z,1002.29
2016-05-16T04:44:57.288Z,1002.24
2016-05-16T04:45:57.321Z,1002.28
2016-05-16T04:46:57.355Z,1002.22
2016-05-16T04:47:57.390Z,1002.24
2016-05-16T04:48:57.424Z,1002.25
2016-05-16T04:49:57.473Z,1002.26
2016-05-16T04:50:57.491Z,1002.28
2016-05-16T04:51:57.540Z,1002.29
2016-05-16T04:52:57.576Z,1002.27
2016-05-16T04:53:57.609Z,1002.22
2016-05-16T04:54:57.643Z,1002.27
2016-05-16T04:55:57.676Z,1002.27
2016-05-16T04:56:57.711Z,1002.27
2016-05-16T04:57:57.745Z,1002.3
2016-05-16T04:58:57.778Z,1002.26
2016-05-16T04:59:57.812Z,1002.27
2016-05-16T05:00:57.862Z,1002.22
2016-05-16T05:01:57.896Z,1002.28
2016-05-16T05:02:57.914Z,1002.25
2016-05-16T05:03:57.980Z,1002.26
2016-05-16T05:04:57.997Z,1002.27
2016-05-16T05:05:58.344Z,1002.25
2016-05-16T05:06:58.066Z,1002.31
2016-05-16T05:07:58.100Z,1002.37
2016-05-16T05:08:58.133Z,1002.35
2016-05-16T05:09:58.167Z,1002.48
2016-05-16T05:10:58.202Z,1002.36
2016-05-16T05:11:58.251Z,1002.29
2016-05-16T05:12:58.269Z,1002.35
2016-05-16T05:13:58.303Z,1002.31
2016-05-16T05:14:58.369Z,1002.41
2016-05-16T05:15:58.388Z,1002.37
2016-05-16T05:16:58.421Z,1002.34
2016-05-16T05:17:58.454Z,1002.58
2016-05-16T05:18:58.488Z,1002.4
2016-05-16T05:19:58.523Z,1002.44
2016-05-16T05:20:58.557Z,1002.42
2016-05-16T05:21:58.590Z,1002.45
2016-05-16T05:22:58.624Z,1002.46
2016-05-16T05:23:58.673Z,1002.42
2016-05-16T05:24:58.708Z,1002.46
2016-05-16T05:25:58.742Z,1002.48
2016-05-16T05:26:58.776Z,1002.49
2016-05-16T05:27:58.809Z,1002.42
2016-05-16T05:28:58.859Z,1002.49
2016-05-16T05:29:58.893Z,1002.46
2016-05-16T05:30:58.911Z,1002.47
2016-05-16T05:31:58.945Z,1002.41
2016-05-16T05:32:58.979Z,1002.43
2016-05-16T05:33:59.014Z,1002.46
2016-05-16T05:34:59.064Z,1002.46
2016-05-16T05:35:59.097Z,1002.44
2016-05-16T05:36:59.146Z,1002.48
2016-05-16T05:37:59.165Z,1002.43
2016-05-16T05:38:59.199Z,1002.47
2016-05-16T05:39:59.233Z,1002.4
2016-05-16T05:40:59.282Z,1002.5
2016-05-16T05:41:59.316Z,1002.46
2016-05-16T05:42:59.349Z,1002.49
2016-05-16T05:43:59.384Z,1002.41
2016-05-16T05:44:59.418Z,1002.44
2016-05-16T05:45:59.468Z,1002.48
2016-05-16T05:46:59.485Z,1002.57
2016-05-16T05:47:59.536Z,1002.49
2016-05-16T05:48:59.568Z,1002.47
2016-05-16T05:49:59.619Z,1002.55
2016-05-16T05:50:59.637Z,1002.45
2016-05-16T05:51:59.671Z,1002.51
2016-05-16T05:52:59.704Z,1002.57
2016-05-16T05:53:59.755Z,1002.56
2016-05-16T05:54:59.788Z,1002.55
2016-05-16T05:55:59.823Z,1002.55
2016-05-16T05:56:59.857Z,1002.55
2016-05-16T05:57:59.890Z,1002.49
2016-05-16T05:58:59.940Z,1002.65
2016-05-16T05:59:59.958Z,1002.47
2016-05-16T06:00:59.992Z,1002.47
2016-05-16T06:02:00.042Z,1002.58
2016-05-16T06:03:00.076Z,1002.64
2016-05-16T06:04:00.109Z,1002.47
2016-05-16T06:05:00.144Z,1002.5
2016-05-16T06:06:00.178Z,1002.53
2016-05-16T06:07:00.227Z,1002.51
2016-05-16T06:08:00.261Z,1002.58
2016-05-16T06:09:00.295Z,1002.53
2016-05-16T06:10:00.328Z,1002.48
2016-05-16T06:11:00.363Z,1002.52
2016-05-16T06:12:00.412Z,1002.49
2016-05-16T06:13:00.431Z,1002.53
2016-05-16T06:14:00.480Z,1002.5
2016-05-16T06:15:00.514Z,1002.53
2016-05-16T06:16:00.548Z,1002.61
2016-05-16T06:17:00.597Z,1002.59
2016-05-16T06:18:00.631Z,1002.56
2016-05-16T06:19:00.665Z,1002.58
2016-05-16T06:20:01.138Z,1002.58
2016-05-16T06:21:00.765Z,1002.6
2016-05-16T06:22:00.783Z,1002.55
2016-05-16T06:23:00.817Z,1002.78
2016-05-16T06:24:00.851Z,1002.59
2016-05-16T06:25:00.885Z,1002.62
2016-05-16T06:26:00.918Z,1002.62
2016-05-16T06:27:00.968Z,1002.59
2016-05-16T06:28:02.596Z,1002.52
2016-05-16T06:29:01.036Z,1002.52
2016-05-16T06:30:01.070Z,1002.58
2016-05-16T06:31:01.104Z,1002.55
2016-05-16T06:32:01.137Z,1002.54
2016-05-16T06:33:01.360Z,1002.56
2016-05-16T06:34:01.221Z,1002.6
2016-05-16T06:35:01.271Z,1002.55
2016-05-16T06:36:01.290Z,1002.53
2016-05-16T06:37:01.339Z,1002.54
2016-05-16T06:38:01.373Z,1002.59
2016-05-16T06:39:01.438Z,1002.57
2016-05-16T06:40:01.456Z,1002.59
2016-05-16T06:41:01.491Z,1002.64
2016-05-16T06:42:01.525Z,1002.65
2016-05-16T06:43:01.558Z,1002.66
2016-05-16T06:44:01.592Z,1002.75
2016-05-16T06:45:01.641Z,1002.66
2016-05-16T06:46:01.675Z,1002.67
2016-05-16T06:47:01.710Z,1002.74
2016-05-16T06:48:01.760Z,1002.76
2016-05-16T06:49:01.794Z,1002.74
2016-05-16T06:50:01.827Z,1002.67
2016-05-16T06:51:01.861Z,1002.72
2016-05-16T06:52:01.911Z,1002.72
2016-05-16T06:53:01.944Z,1002.78
2016-05-16T06:54:01.979Z,1002.73
2016-05-16T06:55:02.028Z,1002.75
2016-05-16T06:56:02.062Z,1002.69
2016-05-16T06:57:02.096Z,1002.79
2016-05-16T06:58:02.130Z,1002.74
2016-05-16T06:59:02.195Z,1002.76
2016-05-16T07:00:02.213Z,1002.82
2016-05-16T07:01:02.247Z,1002.78
2016-05-16T07:02:02.281Z,1002.76
2016-05-16T07:03:02.878Z,1002.75
2016-05-16T07:04:02.364Z,1002.79
2016-05-16T07:05:02.634Z,1002.86
2016-05-16T07:06:02.433Z,1002.86
2016-05-16T07:07:02.466Z,1002.79
2016-05-16T07:08:02.517Z,1002.77
2016-05-16T07:09:02.550Z,1002.82
2016-05-16T07:10:02.600Z,1002.84
2016-05-16T07:11:02.680Z,1002.8
2016-05-16T07:12:02.667Z,1002.88
2016-05-16T07:13:02.717Z,1002.89
2016-05-16T07:14:02.751Z,1002.84
2016-05-16T07:15:02.785Z,1002.97
2016-05-16T07:16:02.835Z,1003
2016-05-16T07:17:02.853Z,1002.9
2016-05-16T07:18:03.465Z,1002.97
2016-05-16T07:19:02.936Z,1002.98
2016-05-16T07:20:02.985Z,1003.04
2016-05-16T07:21:03.191Z,1002.92
2016-05-16T07:22:03.085Z,1002.97
2016-05-16T07:23:04.557Z,1002.94
2016-05-16T07:24:03.138Z,1002.98
2016-05-16T07:25:03.171Z,1003
2016-05-16T07:26:03.205Z,1003.04
2016-05-16T07:27:03.239Z,1003.11
2016-05-16T07:28:03.288Z,1003.03
2016-05-16T07:29:03.354Z,1002.95
2016-05-16T07:30:03.356Z,1002.93
2016-05-16T07:31:03.391Z,1002.92
2016-05-16T07:32:03.471Z,1002.9
2016-05-16T07:33:03.473Z,1002.89
2016-05-16T07:34:03.539Z,1002.9
2016-05-16T07:35:03.557Z,1002.92
2016-05-16T07:36:03.639Z,1002.95
2016-05-16T07:37:03.625Z,1002.91
2016-05-16T07:38:03.675Z,1002.92
2016-05-16T07:39:03.709Z,1002.9
2016-05-16T07:40:03.743Z,1003.09
2016-05-16T07:41:03.778Z,1002.95
2016-05-16T07:42:03.825Z,1003.01
2016-05-16T07:43:03.861Z,1002.94
2016-05-16T07:44:03.894Z,1002.96
2016-05-16T07:45:03.944Z,1002.99
2016-05-16T07:46:03.977Z,1003.06
2016-05-16T07:47:04.011Z,1002.96
2016-05-16T07:48:04.716Z,1002.94
2016-05-16T07:49:04.110Z,1002.97
2016-05-16T07:50:04.130Z,1003.01
2016-05-16T07:51:04.163Z,1003.03
2016-05-16T07:52:04.213Z,1002.95
2016-05-16T07:53:04.246Z,1002.93
2016-05-16T07:54:04.390Z,1002.83
2016-05-16T07:55:04.346Z,1002.86
2016-05-16T07:56:04.410Z,1002.92
2016-05-16T07:57:04.413Z,1002.89
2016-05-16T07:58:04.478Z,1002.91
2016-05-16T07:59:04.482Z,1002.83
2016-05-16T08:00:04.516Z,1002.76
2016-05-16T08:01:04.565Z,1002.76
2016-05-16T08:02:04.599Z,1002.81
2016-05-16T08:03:04.632Z,1002.8
2016-05-16T08:04:04.682Z,1002.82
2016-05-16T08:05:04.716Z,1002.74
2016-05-16T08:06:04.765Z,1002.71
2016-05-16T08:07:04.784Z,1002.77
2016-05-16T08:08:04.834Z,1002.67
2016-05-16T08:09:04.867Z,1002.78
2016-05-16T08:10:04.901Z,1002.78
2016-05-16T08:11:04.951Z,1002.74
2016-05-16T08:12:04.985Z,1002.84
2016-05-16T08:13:05.034Z,1002.85
2016-05-16T08:14:05.068Z,1002.78
2016-05-16T08:15:05.103Z,1002.8
2016-05-16T08:16:05.168Z,1002.77
2016-05-16T08:17:05.186Z,1002.68
2016-05-16T08:18:05.220Z,1002.72
2016-05-16T08:19:05.254Z,1002.66
2016-05-16T08:20:05.303Z,1002.7
2016-05-16T08:21:05.338Z,1002.69
2016-05-16T08:22:05.387Z,1002.74
2016-05-16T08:23:11.061Z,1002.71
2016-05-16T08:24:05.455Z,1002.74
2016-05-16T08:25:05.505Z,1002.69
2016-05-16T08:26:05.538Z,1002.76
2016-05-16T08:27:05.619Z,1002.79
2016-05-16T08:28:05.621Z,1002.87
2016-05-16T08:29:05.656Z,1002.73
2016-05-16T08:30:05.704Z,1002.92
2016-05-16T08:31:05.739Z,1002.87
2016-05-16T08:32:05.774Z,1003.01
2016-05-16T08:33:05.823Z,1002.86
2016-05-16T08:34:05.857Z,1002.87
2016-05-16T08:35:07.015Z,1002.89
2016-05-16T08:36:06.315Z,1002.9
2016-05-16T08:37:05.974Z,1002.93
2016-05-16T08:38:06.023Z,1002.92
2016-05-16T08:39:06.058Z,1002.98
2016-05-16T08:40:06.092Z,1002.94
2016-05-16T08:41:06.125Z,1002.97
2016-05-16T08:42:06.191Z,1003.02
2016-05-16T08:43:06.209Z,1002.96
2016-05-16T08:44:06.242Z,1002.94
2016-05-16T08:45:06.309Z,1002.95
2016-05-16T08:46:06.326Z,1002.92
2016-05-16T08:47:06.375Z,1002.91
2016-05-16T08:48:06.411Z,1002.91
2016-05-16T08:49:06.444Z,1002.88
2016-05-16T08:50:06.494Z,1002.87
2016-05-16T08:51:06.980Z,1002.88
2016-05-16T08:52:06.561Z,1002.92
2016-05-16T08:53:06.611Z,1002.92
2016-05-16T08:54:06.644Z,1002.92
2016-05-16T08:55:06.679Z,1002.88
2016-05-16T08:56:06.775Z,1002.88
2016-05-16T08:57:06.763Z,1002.89
2016-05-16T08:58:06.812Z,1002.85
2016-05-16T08:59:06.846Z,1002.85
2016-05-16T09:00:06.895Z,1002.85
2016-05-16T09:01:06.929Z,1002.82
2016-05-16T09:02:06.962Z,1002.85
2016-05-16T09:03:07.012Z,1002.86
2016-05-16T09:04:07.047Z,1002.8
2016-05-16T09:05:07.096Z,1002.81
2016-05-16T09:06:07.131Z,1002.82
2016-05-16T09:07:07.211Z,1002.84
2016-05-16T09:08:07.214Z,1002.81
2016-05-16T09:09:07.248Z,1002.81
2016-05-16T09:10:07.297Z,1002.77
2016-05-16T09:11:07.378Z,1002.76
2016-05-16T09:12:07.381Z,1002.77
2016-05-16T09:13:07.415Z,1002.73
2016-05-16T09:14:07.464Z,1002.65
2016-05-16T09:15:07.498Z,1002.7
2016-05-16T09:16:07.532Z,1002.72
2016-05-16T09:17:07.581Z,1002.68
2016-05-16T09:18:07.615Z,1002.73
2016-05-16T09:19:07.665Z,1002.69
2016-05-16T09:20:07.700Z,1002.67
2016-05-16T09:21:07.749Z,1002.63
2016-05-16T09:22:07.799Z,1002.71
2016-05-16T09:23:07.816Z,1002.68
2016-05-16T09:24:07.866Z,1002.77
2016-05-16T09:25:07.900Z,1002.65
2016-05-16T09:26:07.950Z,1002.72
2016-05-16T09:27:07.983Z,1002.72
2016-05-16T09:28:08.018Z,1002.77
2016-05-16T09:29:08.068Z,1002.86
2016-05-16T09:30:08.101Z,1002.73
2016-05-16T09:31:08.151Z,1002.72
2016-05-16T09:32:08.184Z,1002.82
2016-05-16T09:33:08.249Z,1002.68
2016-05-16T09:34:08.268Z,1002.91
2016-05-16T09:35:08.318Z,1002.81
2016-05-16T09:36:08.352Z,1002.79
2016-05-16T09:37:08.432Z,1002.84
2016-05-16T09:38:08.435Z,1002.92
2016-05-16T09:39:08.469Z,1002.81
2016-05-16T09:40:08.518Z,1002.81
2016-05-16T09:41:08.553Z,1002.79
2016-05-16T09:42:08.602Z,1002.77
2016-05-16T09:43:08.636Z,1002.84
2016-05-16T09:44:08.686Z,1002.8
2016-05-16T09:45:08.720Z,1002.89
2016-05-16T09:46:08.753Z,1002.79
2016-05-16T09:47:08.803Z,1002.84
2016-05-16T09:48:08.836Z,1002.78
2016-05-16T09:49:08.886Z,1002.79
2016-05-16T09:50:08.920Z,1002.78
2016-05-16T09:51:08.969Z,1002.74
2016-05-16T09:52:09.005Z,1002.83
2016-05-16T09:53:09.053Z,1002.81
2016-05-16T09:54:09.088Z,1002.83
2016-05-16T09:55:09.121Z,1002.83
2016-05-16T09:56:09.171Z,1002.8
2016-05-16T09:57:09.205Z,1002.87
2016-05-16T09:58:09.255Z,1002.83
2016-05-16T09:59:09.289Z,1002.8
2016-05-16T10:00:09.338Z,1002.79
2016-05-16T10:01:09.372Z,1002.76
2016-05-16T10:02:09.406Z,1002.79
2016-05-16T10:03:09.455Z,1002.79
2016-05-16T10:04:09.489Z,1002.74
2016-05-16T10:05:09.539Z,1002.81
2016-05-16T10:06:09.588Z,1002.74
2016-05-16T10:07:09.623Z,1002.81
2016-05-16T10:08:09.657Z,1002.68
2016-05-16T10:09:09.706Z,1002.75
2016-05-16T10:10:09.740Z,1002.7
2016-05-16T10:11:09.789Z,1002.8
2016-05-16T10:12:09.823Z,1002.74
2016-05-16T10:13:09.873Z,1002.71
2016-05-16T10:14:09.923Z,1002.67
2016-05-16T10:15:09.957Z,1002.71
2016-05-16T10:16:09.990Z,1002.68
2016-05-16T10:17:10.056Z,1002.82
2016-05-16T10:18:10.074Z,1002.7
2016-05-16T10:19:10.123Z,1002.87
2016-05-16T10:20:10.157Z,1002.76
2016-05-16T10:21:10.364Z,1002.77
2016-05-16T10:22:10.241Z,1002.77
2016-05-16T10:23:10.291Z,1002.73
2016-05-16T10:24:10.372Z,1002.94
2016-05-16T10:25:10.374Z,1002.87
2016-05-16T10:26:10.408Z,1003.62
2016-05-16T10:27:10.457Z,1002.89
2016-05-16T10:28:10.554Z,1003.01
2016-05-16T10:29:10.572Z,1002.83
2016-05-16T10:30:10.591Z,1002.96
2016-05-16T10:31:10.625Z,1002.89
2016-05-16T10:32:10.674Z,1002.9
2016-05-16T10:33:10.708Z,1003.66
2016-05-16T10:34:10.757Z,1003.55
2016-05-16T10:35:10.791Z,1003.58
2016-05-16T10:36:10.840Z,1003.55
2016-05-16T10:37:10.891Z,1003.45
2016-05-16T10:38:10.924Z,1003.43
2016-05-16T10:39:10.973Z,1003.45
2016-05-16T10:40:11.024Z,1003.34
2016-05-16T10:41:11.074Z,1003.45
2016-05-16T10:42:11.139Z,1003.3
2016-05-16T10:43:11.188Z,1003.31
2016-05-16T10:44:11.206Z,1003.36
2016-05-16T10:45:11.256Z,1003.32
2016-05-16T10:46:11.305Z,1003.32
2016-05-16T10:47:11.355Z,1003.3
2016-05-16T10:48:11.405Z,1003.18
2016-05-16T10:49:11.486Z,1003.21
2016-05-16T10:50:11.488Z,1003.06
2016-05-16T10:51:11.553Z,1003.17
2016-05-16T10:52:11.602Z,1003.19
2016-05-16T10:53:11.653Z,1003.05
2016-05-16T10:54:11.702Z,1002.68
2016-05-16T10:55:11.752Z,1002.79
2016-05-16T10:56:11.833Z,1003
2016-05-16T10:57:11.850Z,1003.08
2016-05-16T10:58:11.940Z,1003.07
2016-05-16T10:59:12.037Z,1002.71
2016-05-16T11:00:12.133Z,1002.72
2016-05-16T11:01:12.230Z,1002.69
2016-05-16T11:02:12.326Z,1002.7
2016-05-16T11:03:12.444Z,1002.65
2016-05-16T11:04:12.448Z,1002.68
2016-05-16T11:05:12.889Z,1002.81
2016-05-16T11:06:12.596Z,1002.71
2016-05-16T11:07:12.632Z,1002.69
2016-05-16T11:08:12.688Z,1002.73
2016-05-16T11:09:12.744Z,1002.74
2016-05-16T11:10:12.830Z,1002.84
2016-05-16T11:11:12.870Z,1003.23
2016-05-16T11:12:12.895Z,1003.2
2016-05-16T11:13:12.947Z,1003.08
2016-05-16T11:14:12.982Z,1002.96
2016-05-16T11:15:13.035Z,1002.86
2016-05-16T11:16:13.086Z,1003.27
2016-05-16T11:17:13.138Z,1003.31
2016-05-16T11:18:13.173Z,1003.05
2016-05-16T11:19:13.223Z,1003.15
2016-05-16T11:20:13.274Z,1002.83
2016-05-16T11:21:13.448Z,1002.93
2016-05-16T11:22:13.374Z,1002.84
2016-05-16T11:23:13.425Z,1002.8
2016-05-16T11:24:13.474Z,1002.81
2016-05-16T11:25:13.525Z,1002.72
2016-05-16T11:26:13.574Z,1002.93
2016-05-16T11:27:13.655Z,1003.23
2016-05-16T11:28:13.658Z,1002.84
2016-05-16T11:29:13.708Z,1002.78
2016-05-16T11:30:13.757Z,1002.72
2016-05-16T11:31:13.807Z,1003.22
2016-05-16T11:32:13.856Z,1003.14
2016-05-16T11:33:13.891Z,1003.19
2016-05-16T11:34:13.940Z,1003.06
2016-05-16T11:35:13.989Z,1003.26
2016-05-16T11:36:14.039Z,1003.29
2016-05-16T11:37:14.088Z,1003.31
2016-05-16T11:38:14.154Z,1003.42
2016-05-16T11:39:14.188Z,1003.37
2016-05-16T11:40:14.238Z,1003.39
2016-05-16T11:41:14.287Z,1003.24
2016-05-16T11:42:14.336Z,1003.25
2016-05-16T11:43:14.385Z,1003.33
2016-05-16T11:44:14.451Z,1003.38
2016-05-16T11:45:14.501Z,1003.32
2016-05-16T11:46:14.550Z,1003.44
2016-05-16T11:47:14.600Z,1003.29
2016-05-16T11:48:14.649Z,1003.32
2016-05-16T11:49:14.715Z,1003.42
2016-05-16T11:50:14.765Z,1003.59
2016-05-16T11:51:14.814Z,1003.48
2016-05-16T11:52:14.879Z,1003.52
2016-05-16T11:53:14.928Z,1003.43
2016-05-16T11:54:14.978Z,1003.51
2016-05-16T11:55:15.043Z,1003.23
2016-05-16T11:56:15.093Z,1003.08
2016-05-16T11:57:15.158Z,1002.95
2016-05-16T11:58:15.239Z,1003.17
2016-05-16T11:59:15.256Z,1002.55
2016-05-16T12:00:15.323Z,1002.59
2016-05-16T12:01:15.372Z,1002.57
2016-05-16T12:02:15.422Z,1002.57
2016-05-16T12:03:15.472Z,1002.54
2016-05-16T12:04:15.520Z,1002.65
2016-05-16T12:05:15.586Z,1002.69
2016-05-16T12:06:15.619Z,1002.63
2016-05-16T12:07:15.669Z,1002.61
2016-05-16T12:08:15.735Z,1003.52
2016-05-16T12:09:15.769Z,1002.69